sensor_id;sensor_type;location;lat;lon;timestamp;pressure;altitude;pressure_sealevel;temperature;humidity
32735;BME280;19112;51.076;3.706;2023-02-10T00:01:29;103550.16;;;6.79;73.20
32735;BME280;19112;51.076;3.706;2023-02-10T00:03:56;103125.91;;;4.43;73.14
32735;BME280;19112;51.076;3.706;2023-02-10T00:06:24;103384.22;;;5.78;73.18
32735;BME280;19112;51.076;3.706;2023-02-10T00:08:53;103565.09;;;6.90;72.99
32735;BME280;19112;51.076;3.706;2023-02-10T00:11:20;103572.94;;;6.90;72.95
32735;BME280;19112;51.076;3.706;2023-02-10T00:14:06;103492.81;;;6.51;73.37
32735;BME280;19112;51.076;3.706;2023-02-10T00:16:32;103566.03;;;6.91;73.50
32735;BME280;19112;51.076;3.706;2023-02-10T00:18:59;103564.88;;;6.97;73.34
32735;BME280;19112;51.076;3.706;2023-02-10T00:21:25;103448.84;;;6.37;73.18
32735;BME280;19112;51.076;3.706;2023-02-10T00:23:50;103336.72;;;5.91;73.16
32735;BME280;19112;51.076;3.706;2023-02-10T00:26:16;103567.00;;;7.20;72.74
32735;BME280;19112;51.076;3.706;2023-02-10T00:28:42;103533.53;;;7.16;72.66
32735;BME280;19112;51.076;3.706;2023-02-10T00:31:12;103566.28;;;7.31;72.64
32735;BME280;19112;51.076;3.706;2023-02-10T00:33:38;103545.06;;;7.28;73.23
32735;BME280;19112;51.076;3.706;2023-02-10T00:36:09;103283.34;;;5.96;73.07
32735;BME280;19112;51.076;3.706;2023-02-10T00:38:36;103479.66;;;7.08;73.07
32735;BME280;19112;51.076;3.706;2023-02-10T00:41:05;103561.88;;;7.51;72.87
32735;BME280;19112;51.076;3.706;2023-02-10T00:43:31;103331.13;;;6.24;72.50
32735;BME280;19112;51.076;3.706;2023-02-10T00:45:57;103451.16;;;7.01;72.68
32735;BME280;19112;51.076;3.706;2023-02-10T00:48:24;103290.50;;;6.17;72.79
32735;BME280;19112;51.076;3.706;2023-02-10T00:50:49;103538.69;;;7.64;72.68
32735;BME280;19112;51.076;3.706;2023-02-10T00:53:15;103318.03;;;6.43;72.62
32735;BME280;19112;51.076;3.706;2023-02-10T00:55:41;103273.16;;;6.18;72.13
32735;BME280;19112;51.076;3.706;2023-02-10T00:58:07;103465.50;;;7.25;72.22
32735;BME280;19112;51.076;3.706;2023-02-10T01:00:34;103365.66;;;6.69;72.22
32735;BME280;19112;51.076;3.706;2023-02-10T01:03:00;103450.34;;;7.21;72.66
32735;BME280;19112;51.076;3.706;2023-02-10T01:05:26;103528.50;;;7.67;73.10
32735;BME280;19112;51.076;3.706;2023-02-10T01:07:51;103541.47;;;7.76;73.23
32735;BME280;19112;51.076;3.706;2023-02-10T01:10:19;103510.81;;;7.54;73.34
32735;BME280;19112;51.076;3.706;2023-02-10T01:12:45;103357.56;;;6.76;72.58
32735;BME280;19112;51.076;3.706;2023-02-10T01:15:11;103443.03;;;7.27;73.23
32735;BME280;19112;51.076;3.706;2023-02-10T01:17:37;103233.91;;;6.16;72.76
32735;BME280;19112;51.076;3.706;2023-02-10T01:20:04;103371.22;;;6.93;73.23
32735;BME280;19112;51.076;3.706;2023-02-10T01:22:33;103358.69;;;6.89;73.82
32735;BME280;19112;51.076;3.706;2023-02-10T01:24:59;103234.19;;;6.19;73.51
32735;BME280;19112;51.076;3.706;2023-02-10T01:27:25;103455.75;;;7.43;74.03
32735;BME280;19112;51.076;3.706;2023-02-10T01:29:51;103532.31;;;7.81;73.46
32735;BME280;19112;51.076;3.706;2023-02-10T01:32:17;103465.41;;;7.44;74.15
32735;BME280;19112;51.076;3.706;2023-02-10T01:34:43;103554.47;;;7.95;73.96
32735;BME280;19112;51.076;3.706;2023-02-10T01:37:09;103508.63;;;7.69;73.87
32735;BME280;19112;51.076;3.706;2023-02-10T01:39:35;103496.81;;;7.54;74.08
32735;BME280;19112;51.076;3.706;2023-02-10T01:42:01;103305.53;;;6.49;74.00
32735;BME280;19112;51.076;3.706;2023-02-10T01:46:55;103553.94;;;7.88;73.47
32735;BME280;19112;51.076;3.706;2023-02-10T01:49:29;103117.94;;;5.44;73.02
32735;BME280;19112;51.076;3.706;2023-02-10T01:52:16;103540.53;;;7.75;73.21
32735;BME280;19112;51.076;3.706;2023-02-10T01:54:51;103444.00;;;6.98;73.25
32735;BME280;19112;51.076;3.706;2023-02-10T01:57:19;103518.69;;;7.25;73.36
32735;BME280;19112;51.076;3.706;2023-02-10T01:59:46;103410.19;;;6.52;73.63
32735;BME280;19112;51.076;3.706;2023-02-10T02:02:13;103336.09;;;6.02;73.97
32735;BME280;19112;51.076;3.706;2023-02-10T02:07:12;102487.28;;;1.04;73.67
32735;BME280;19112;51.076;3.706;2023-02-10T02:09:38;103472.91;;;6.43;74.13
32735;BME280;19112;51.076;3.706;2023-02-10T02:14:53;103492.34;;;6.28;74.53
32735;BME280;19112;51.076;3.706;2023-02-10T02:17:39;103573.50;;;6.59;74.80
32735;BME280;19112;51.076;3.706;2023-02-10T02:32:49;103530.44;;;5.98;73.67
32735;BME280;19112;51.076;3.706;2023-02-10T02:35:25;103450.28;;;5.51;74.27
32735;BME280;19112;51.076;3.706;2023-02-10T02:37:53;103536.13;;;5.86;73.80
32735;BME280;19112;51.076;3.706;2023-02-10T02:40:20;103514.25;;;5.75;74.20
32735;BME280;19112;51.076;3.706;2023-02-10T02:42:46;103391.81;;;4.94;74.24
32735;BME280;19112;51.076;3.706;2023-02-10T02:45:26;103482.09;;;5.30;74.81
32735;BME280;19112;51.076;3.706;2023-02-10T02:51:10;103561.78;;;5.81;75.04
32735;BME280;19112;51.076;3.706;2023-02-10T03:02:05;103573.19;;;5.56;75.37
32735;BME280;19112;51.076;3.706;2023-02-10T03:04:34;103065.47;;;2.68;75.23
32735;BME280;19112;51.076;3.706;2023-02-10T03:07:01;103496.09;;;5.13;75.61
32735;BME280;19112;51.076;3.706;2023-02-10T03:09:27;103505.00;;;5.06;75.78
32735;BME280;19112;51.076;3.706;2023-02-10T03:11:53;103284.47;;;3.89;75.18
32735;BME280;19112;51.076;3.706;2023-02-10T03:14:19;103255.44;;;3.67;75.63
32735;BME280;19112;51.076;3.706;2023-02-10T03:16:45;103540.50;;;5.14;75.38
32735;BME280;19112;51.076;3.706;2023-02-10T03:19:11;103215.56;;;3.41;74.97
32735;BME280;19112;51.076;3.706;2023-02-10T03:21:37;103534.22;;;5.12;74.43
32735;BME280;19112;51.076;3.706;2023-02-10T03:24:03;103578.13;;;5.44;75.19
32735;BME280;19112;51.076;3.706;2023-02-10T03:26:29;103313.19;;;3.82;75.30
32735;BME280;19112;51.076;3.706;2023-02-10T03:28:56;103288.75;;;3.80;75.35
32735;BME280;19112;51.076;3.706;2023-02-10T03:31:21;103546.16;;;5.19;74.97
32735;BME280;19112;51.076;3.706;2023-02-10T03:33:47;103255.41;;;3.50;74.83
32735;BME280;19112;51.076;3.706;2023-02-10T03:36:13;103591.50;;;5.38;75.11
32735;BME280;19112;51.076;3.706;2023-02-10T03:38:39;103592.84;;;5.35;75.15
32735;BME280;19112;51.076;3.706;2023-02-10T03:41:05;102810.97;;;1.00;74.58
32735;BME280;19112;51.076;3.706;2023-02-10T03:43:31;103366.88;;;4.08;74.23
32735;BME280;19112;51.076;3.706;2023-02-10T03:46:02;103354.16;;;3.93;74.61
32735;BME280;19112;51.076;3.706;2023-02-10T03:48:29;103598.97;;;5.26;74.45
32735;BME280;19112;51.076;3.706;2023-02-10T03:50:59;103355.38;;;3.88;74.97
32735;BME280;19112;51.076;3.706;2023-02-10T03:53:25;103535.03;;;4.85;74.80
32735;BME280;19112;51.076;3.706;2023-02-10T03:55:51;103407.38;;;4.14;75.40
32735;BME280;19112;51.076;3.706;2023-02-10T03:58:17;103539.75;;;4.89;76.13
32735;BME280;19112;51.076;3.706;2023-02-10T04:00:43;103602.38;;;5.34;76.02
32735;BME280;19112;51.076;3.706;2023-02-10T04:03:09;103599.13;;;5.45;76.32
32735;BME280;19112;51.076;3.706;2023-02-10T04:05:35;103601.72;;;5.54;76.53
32735;BME280;19112;51.076;3.706;2023-02-10T04:08:01;103558.69;;;5.32;76.34
32735;BME280;19112;51.076;3.706;2023-02-10T04:10:27;103276.34;;;3.78;76.26
32735;BME280;19112;51.076;3.706;2023-02-10T04:12:53;103571.69;;;5.49;76.53
32735;BME280;19112;51.076;3.706;2023-02-10T04:15:19;103406.13;;;4.71;76.46
32735;BME280;19112;51.076;3.706;2023-02-10T04:17:45;103295.44;;;4.22;76.41
32735;BME280;19112;51.076;3.706;2023-02-10T04:20:12;103074.03;;;3.10;76.36
32735;BME280;19112;51.076;3.706;2023-02-10T04:22:38;103281.50;;;4.30;76.26
32735;BME280;19112;51.076;3.706;2023-02-10T04:25:05;103624.34;;;6.26;76.35
32735;BME280;19112;51.076;3.706;2023-02-10T04:27:31;103475.44;;;5.50;76.14
32735;BME280;19112;51.076;3.706;2023-02-10T04:29:57;103365.00;;;4.95;76.06
32735;BME280;19112;51.076;3.706;2023-02-10T04:32:23;103449.66;;;5.53;75.93
32735;BME280;19112;51.076;3.706;2023-02-10T04:34:48;103617.44;;;6.54;75.84
32735;BME280;19112;51.076;3.706;2023-02-10T04:37:15;103389.38;;;5.32;75.27
32735;BME280;19112;51.076;3.706;2023-02-10T04:39:41;103621.69;;;6.62;75.36
32735;BME280;19112;51.076;3.706;2023-02-10T04:42:07;103154.50;;;4.07;74.95
32735;BME280;19112;51.076;3.706;2023-02-10T04:44:33;103615.69;;;6.63;75.03
32735;BME280;19112;51.076;3.706;2023-02-10T04:46:59;103612.44;;;6.66;75.13
32735;BME280;19112;51.076;3.706;2023-02-10T04:49:25;103365.22;;;5.24;74.78
32735;BME280;19112;51.076;3.706;2023-02-10T04:51:52;103297.41;;;4.86;74.55
32735;BME280;19112;51.076;3.706;2023-02-10T04:54:18;103543.03;;;6.21;75.02
32735;BME280;19112;51.076;3.706;2023-02-10T04:56:44;103305.81;;;4.84;74.47
32735;BME280;19112;51.076;3.706;2023-02-10T04:59:10;103547.63;;;6.24;74.68
32735;BME280;19112;51.076;3.706;2023-02-10T05:01:36;103621.97;;;6.65;74.97
32735;BME280;19112;51.076;3.706;2023-02-10T05:04:02;103615.69;;;6.63;74.77
32735;BME280;19112;51.076;3.706;2023-02-10T05:06:28;103486.09;;;5.98;74.72
32735;BME280;19112;51.076;3.706;2023-02-10T05:08:54;103618.09;;;6.70;74.72
32735;BME280;19112;51.076;3.706;2023-02-10T05:11:20;103251.69;;;4.71;74.40
32735;BME280;19112;51.076;3.706;2023-02-10T05:13:46;103421.25;;;5.65;74.61
32735;BME280;19112;51.076;3.706;2023-02-10T05:16:13;103469.69;;;5.99;74.70
32735;BME280;19112;51.076;3.706;2023-02-10T05:18:40;103506.50;;;6.21;74.77
32735;BME280;19112;51.076;3.706;2023-02-10T05:21:07;103322.97;;;5.18;74.96
32735;BME280;19112;51.076;3.706;2023-02-10T05:23:34;102986.06;;;3.30;74.35
32735;BME280;19112;51.076;3.706;2023-02-10T05:26:00;103422.19;;;5.85;74.56
32735;BME280;19112;51.076;3.706;2023-02-10T05:28:26;102888.31;;;2.86;74.37
32735;BME280;19112;51.076;3.706;2023-02-10T05:30:53;103652.03;;;6.98;74.95
32735;BME280;19112;51.076;3.706;2023-02-10T05:33:19;103580.63;;;6.70;74.82
32735;BME280;19112;51.076;3.706;2023-02-10T05:35:46;103608.09;;;6.94;74.42
32735;BME280;19112;51.076;3.706;2023-02-10T05:38:12;103566.88;;;6.62;74.45
32735;BME280;19112;51.076;3.706;2023-02-10T05:40:38;103515.56;;;6.25;74.24
32735;BME280;19112;51.076;3.706;2023-02-10T05:43:04;103438.50;;;5.73;74.19
32735;BME280;19112;51.076;3.706;2023-02-10T05:45:30;103601.28;;;6.58;74.34
32735;BME280;19112;51.076;3.706;2023-02-10T05:47:55;103527.75;;;6.07;74.48
32735;BME280;19112;51.076;3.706;2023-02-10T05:50:22;103465.69;;;5.67;74.50
32735;BME280;19112;51.076;3.706;2023-02-10T05:52:47;103404.97;;;5.04;74.30
32735;BME280;19112;51.076;3.706;2023-02-10T05:55:13;103511.94;;;5.78;74.33
32735;BME280;19112;51.076;3.706;2023-02-10T05:57:39;103406.09;;;5.25;74.45
32735;BME280;19112;51.076;3.706;2023-02-10T06:00:06;103585.09;;;6.16;74.58
32735;BME280;19112;51.076;3.706;2023-02-10T06:02:33;103278.75;;;4.19;74.81
32735;BME280;19112;51.076;3.706;2023-02-10T06:04:59;103345.22;;;4.61;74.78
32735;BME280;19112;51.076;3.706;2023-02-10T06:07:24;103471.66;;;5.30;75.35
32735;BME280;19112;51.076;3.706;2023-02-10T06:09:50;103516.19;;;5.50;75.36
32735;BME280;19112;51.076;3.706;2023-02-10T06:12:16;103355.63;;;4.61;75.48
32735;BME280;19112;51.076;3.706;2023-02-10T06:14:44;103537.00;;;5.59;75.27
32735;BME280;19112;51.076;3.706;2023-02-10T06:17:10;103596.47;;;5.71;75.68
32735;BME280;19112;51.076;3.706;2023-02-10T06:19:39;103158.31;;;3.31;75.84
32735;BME280;19112;51.076;3.706;2023-02-10T06:22:06;103536.31;;;5.34;76.16
32735;BME280;19112;51.076;3.706;2023-02-10T06:24:33;103168.53;;;3.38;75.90
32735;BME280;19112;51.076;3.706;2023-02-10T06:26:59;103082.56;;;2.83;75.73
32735;BME280;19112;51.076;3.706;2023-02-10T06:29:25;103583.44;;;5.63;75.94
32735;BME280;19112;51.076;3.706;2023-02-10T06:31:51;103584.06;;;5.60;76.08
32735;BME280;19112;51.076;3.706;2023-02-10T06:34:17;103555.16;;;5.40;75.68
32735;BME280;19112;51.076;3.706;2023-02-10T06:36:43;103251.00;;;3.66;75.88
32735;BME280;19112;51.076;3.706;2023-02-10T06:39:09;103600.34;;;5.49;76.26
32735;BME280;19112;51.076;3.706;2023-02-10T06:41:34;103062.53;;;2.47;76.02
32735;BME280;19112;51.076;3.706;2023-02-10T06:44:00;103569.59;;;5.10;76.34
32735;BME280;19112;51.076;3.706;2023-02-10T06:46:26;103359.84;;;4.07;76.61
32735;BME280;19112;51.076;3.706;2023-02-10T06:48:52;103583.84;;;5.05;76.68
32735;BME280;19112;51.076;3.706;2023-02-10T06:51:18;103593.78;;;5.26;77.38
32735;BME280;19112;51.076;3.706;2023-02-10T06:53:44;103112.41;;;2.53;76.91
32735;BME280;19112;51.076;3.706;2023-02-10T06:56:12;103599.31;;;5.12;78.13
32735;BME280;19112;51.076;3.706;2023-02-10T06:58:38;103396.38;;;4.00;77.87
32735;BME280;19112;51.076;3.706;2023-02-10T07:01:13;103340.22;;;3.58;78.37
32735;BME280;19112;51.076;3.706;2023-02-10T07:03:41;103643.56;;;5.21;78.17
32735;BME280;19112;51.076;3.706;2023-02-10T07:06:07;103609.72;;;5.30;78.05
32735;BME280;19112;51.076;3.706;2023-02-10T07:08:33;103259.69;;;3.32;78.08
32735;BME280;19112;51.076;3.706;2023-02-10T07:11:00;103345.16;;;3.90;77.68
32735;BME280;19112;51.076;3.706;2023-02-10T07:13:25;103545.84;;;4.90;77.64
32735;BME280;19112;51.076;3.706;2023-02-10T07:15:51;103451.56;;;4.58;77.52
32735;BME280;19112;51.076;3.706;2023-02-10T07:18:18;103462.75;;;4.65;77.56
32735;BME280;19112;51.076;3.706;2023-02-10T07:20:44;103496.88;;;4.86;78.09
32735;BME280;19112;51.076;3.706;2023-02-10T07:23:09;103622.38;;;5.61;77.90
32735;BME280;19112;51.076;3.706;2023-02-10T07:25:35;103626.78;;;5.79;77.94
32735;BME280;19112;51.076;3.706;2023-02-10T07:28:01;103621.41;;;5.87;77.84
32735;BME280;19112;51.076;3.706;2023-02-10T07:30:27;103484.88;;;5.14;77.55
32735;BME280;19112;51.076;3.706;2023-02-10T07:32:53;103579.84;;;5.79;77.25
32735;BME280;19112;51.076;3.706;2023-02-10T07:35:19;102935.97;;;2.26;76.88
32735;BME280;19112;51.076;3.706;2023-02-10T07:37:44;103498.53;;;5.56;76.83
32735;BME280;19112;51.076;3.706;2023-02-10T07:40:11;103344.13;;;4.67;76.50
32735;BME280;19112;51.076;3.706;2023-02-10T07:42:36;103528.59;;;5.89;76.59
32735;BME280;19112;51.076;3.706;2023-02-10T07:45:03;103583.28;;;6.15;76.33
32735;BME280;19112;51.076;3.706;2023-02-10T07:47:29;103363.78;;;5.00;76.09
32735;BME280;19112;51.076;3.706;2023-02-10T07:49:55;103351.94;;;4.67;76.09
32735;BME280;19112;51.076;3.706;2023-02-10T07:52:21;103637.34;;;6.35;76.19
32735;BME280;19112;51.076;3.706;2023-02-10T07:54:49;103624.44;;;6.36;76.39
32735;BME280;19112;51.076;3.706;2023-02-10T07:57:15;103513.94;;;5.81;76.18
32735;BME280;19112;51.076;3.706;2023-02-10T07:59:41;103546.22;;;6.00;76.12
32735;BME280;19112;51.076;3.706;2023-02-10T08:02:11;103299.63;;;4.64;75.79
32735;BME280;19112;51.076;3.706;2023-02-10T08:04:37;102975.78;;;2.78;75.74
32735;BME280;19112;51.076;3.706;2023-02-10T08:07:03;103657.13;;;6.69;76.17
32735;BME280;19112;51.076;3.706;2023-02-10T08:09:29;103001.81;;;2.97;75.87
32735;BME280;19112;51.076;3.706;2023-02-10T08:11:55;103416.00;;;5.38;75.94
32735;BME280;19112;51.076;3.706;2023-02-10T08:14:20;103073.97;;;3.53;76.01
32735;BME280;19112;51.076;3.706;2023-02-10T08:16:46;103513.81;;;6.07;75.98
32735;BME280;19112;51.076;3.706;2023-02-10T08:19:12;103411.00;;;5.58;76.08
32735;BME280;19112;51.076;3.706;2023-02-10T08:21:38;103348.22;;;5.28;75.66
32735;BME280;19112;51.076;3.706;2023-02-10T08:24:04;103508.50;;;6.24;75.76
32735;BME280;19112;51.076;3.706;2023-02-10T08:26:30;103484.22;;;6.06;75.46
32735;BME280;19112;51.076;3.706;2023-02-10T08:28:56;103590.97;;;6.60;75.72
32735;BME280;19112;51.076;3.706;2023-02-10T08:31:24;103644.16;;;6.79;76.42
32735;BME280;19112;51.076;3.706;2023-02-10T08:33:50;103536.88;;;6.29;76.03
32735;BME280;19112;51.076;3.706;2023-02-10T08:36:18;103640.72;;;6.89;75.68
32735;BME280;19112;51.076;3.706;2023-02-10T08:38:45;103609.63;;;6.73;76.22
32735;BME280;19112;51.076;3.706;2023-02-10T08:41:11;103559.91;;;6.44;76.32
32735;BME280;19112;51.076;3.706;2023-02-10T08:43:37;103388.53;;;5.50;75.93
32735;BME280;19112;51.076;3.706;2023-02-10T08:46:03;103373.41;;;5.37;76.50
32735;BME280;19112;51.076;3.706;2023-02-10T08:48:30;103620.34;;;6.76;76.99
32735;BME280;19112;51.076;3.706;2023-02-10T08:50:56;103666.34;;;7.12;77.11
32735;BME280;19112;51.076;3.706;2023-02-10T08:53:22;103605.13;;;6.80;76.78
32735;BME280;19112;51.076;3.706;2023-02-10T08:56:04;103561.31;;;6.68;76.57
32735;BME280;19112;51.076;3.706;2023-02-10T08:58:31;103610.72;;;6.94;76.34
32735;BME280;19112;51.076;3.706;2023-02-10T09:00:57;103417.53;;;5.91;76.01
32735;BME280;19112;51.076;3.706;2023-02-10T09:03:22;103320.03;;;5.23;76.29
32735;BME280;19112;51.076;3.706;2023-02-10T09:05:49;103405.88;;;5.68;76.38
32735;BME280;19112;51.076;3.706;2023-02-10T09:08:17;103520.69;;;6.34;76.92
32735;BME280;19112;51.076;3.706;2023-02-10T09:10:44;103683.28;;;7.44;76.92
32735;BME280;19112;51.076;3.706;2023-02-10T09:13:10;103508.38;;;6.60;76.52
32735;BME280;19112;51.076;3.706;2023-02-10T09:15:38;103659.41;;;7.50;76.51
32735;BME280;19112;51.076;3.706;2023-02-10T09:18:05;103628.50;;;7.35;76.67
32735;BME280;19112;51.076;3.706;2023-02-10T09:20:31;103519.81;;;6.90;76.03
32735;BME280;19112;51.076;3.706;2023-02-10T09:22:57;103504.25;;;6.91;76.17
32735;BME280;19112;51.076;3.706;2023-02-10T09:25:23;103275.16;;;5.64;76.15
32735;BME280;19112;51.076;3.706;2023-02-10T09:27:51;103585.41;;;7.51;76.18
32735;BME280;19112;51.076;3.706;2023-02-10T09:30:17;103410.34;;;6.53;76.11
32735;BME280;19112;51.076;3.706;2023-02-10T09:32:43;103687.44;;;8.19;75.95
32735;BME280;19112;51.076;3.706;2023-02-10T09:35:09;103659.16;;;8.05;75.52
32735;BME280;19112;51.076;3.706;2023-02-10T09:37:35;103572.63;;;7.54;75.17
32735;BME280;19112;51.076;3.706;2023-02-10T09:40:00;103714.56;;;8.30;75.82
32735;BME280;19112;51.076;3.706;2023-02-10T09:45:27;103647.47;;;8.01;75.40
32735;BME280;19112;51.076;3.706;2023-02-10T09:48:17;103627.59;;;8.03;75.77
32735;BME280;19112;51.076;3.706;2023-02-10T09:53:55;103487.41;;;7.46;75.37
32735;BME280;19112;51.076;3.706;2023-02-10T09:56:21;103696.75;;;8.75;75.29
32735;BME280;19112;51.076;3.706;2023-02-10T09:58:55;103641.22;;;8.49;75.48
32735;BME280;19112;51.076;3.706;2023-02-10T10:04:05;103611.09;;;8.54;74.74
32735;BME280;19112;51.076;3.706;2023-02-10T10:06:35;103711.16;;;9.31;74.82
32735;BME280;19112;51.076;3.706;2023-02-10T10:11:48;103580.97;;;8.79;74.55
32735;BME280;19112;51.076;3.706;2023-02-10T10:14:28;103647.22;;;9.19;74.19
32735;BME280;19112;51.076;3.706;2023-02-10T10:20:26;103707.97;;;9.56;74.18
32735;BME280;19112;51.076;3.706;2023-02-10T10:23:42;103610.41;;;9.17;74.35
32735;BME280;19112;51.076;3.706;2023-02-10T10:26:45;103643.84;;;9.52;74.21
32735;BME280;19112;51.076;3.706;2023-02-10T10:29:31;103501.09;;;8.84;73.93
32735;BME280;19112;51.076;3.706;2023-02-10T10:32:22;103688.47;;;9.84;73.63
32735;BME280;19112;51.076;3.706;2023-02-10T10:34:53;103442.09;;;8.47;74.00
32735;BME280;19112;51.076;3.706;2023-02-10T10:37:23;103650.47;;;9.69;73.72
32735;BME280;19112;51.076;3.706;2023-02-10T10:39:57;103520.47;;;9.18;73.34
32735;BME280;19112;51.076;3.706;2023-02-10T10:42:49;103698.66;;;10.34;73.04
32735;BME280;19112;51.076;3.706;2023-02-10T10:45:24;103684.25;;;10.29;72.87
32735;BME280;19112;51.076;3.706;2023-02-10T10:48:34;103713.28;;;10.64;72.43
32735;BME280;19112;51.076;3.706;2023-02-10T10:50:58;103711.28;;;10.71;72.22
32735;BME280;19112;51.076;3.706;2023-02-10T10:53:50;103571.66;;;10.11;71.92
32735;BME280;19112;51.076;3.706;2023-02-10T10:58:50;103680.19;;;10.66;71.11
32735;BME280;19112;51.076;3.706;2023-02-10T11:01:18;103684.88;;;11.04;71.26
32735;BME280;19112;51.076;3.706;2023-02-10T11:03:44;103690.81;;;11.13;70.79
32735;BME280;19112;51.076;3.706;2023-02-10T11:06:16;103461.00;;;9.95;70.25
32735;BME280;19112;51.076;3.706;2023-02-10T11:09:04;103548.09;;;10.57;70.13
32735;BME280;19112;51.076;3.706;2023-02-10T11:11:41;103619.00;;;11.02;69.64
32735;BME280;19112;51.076;3.706;2023-02-10T11:14:24;103632.97;;;11.01;69.96
32735;BME280;19112;51.076;3.706;2023-02-10T11:16:58;103385.97;;;9.63;69.62
32735;BME280;19112;51.076;3.706;2023-02-10T11:19:31;103597.97;;;10.90;69.39
32735;BME280;19112;51.076;3.706;2023-02-10T11:21:57;103649.00;;;11.16;69.59
32735;BME280;19112;51.076;3.706;2023-02-10T11:24:27;103370.81;;;9.59;69.50
32735;BME280;19112;51.076;3.706;2023-02-10T11:27:03;103659.88;;;11.20;69.80
32735;BME280;19112;51.076;3.706;2023-02-10T11:29:57;103557.16;;;10.60;69.67
32735;BME280;19112;51.076;3.706;2023-02-10T11:32:33;103658.16;;;11.21;69.62
32735;BME280;19112;51.076;3.706;2023-02-10T11:35:02;103544.50;;;10.78;69.18
32735;BME280;19112;51.076;3.706;2023-02-10T11:37:38;103635.75;;;11.26;69.77
32735;BME280;19112;51.076;3.706;2023-02-10T11:40:54;103636.66;;;11.50;69.44
32735;BME280;19112;51.076;3.706;2023-02-10T11:43:39;103595.03;;;11.33;69.25
32735;BME280;19112;51.076;3.706;2023-02-10T11:46:07;103475.69;;;10.84;69.16
32735;BME280;19112;51.076;3.706;2023-02-10T11:48:57;103643.72;;;11.98;69.01
32735;BME280;19112;51.076;3.706;2023-02-10T11:51:23;103603.47;;;11.64;68.50
32735;BME280;19112;51.076;3.706;2023-02-10T11:53:50;103571.00;;;11.40;68.49
32735;BME280;19112;51.076;3.706;2023-02-10T11:56:44;103635.34;;;12.03;68.34
32735;BME280;19112;51.076;3.706;2023-02-10T11:59:48;103635.38;;;11.92;67.81
32735;BME280;19112;51.076;3.706;2023-02-10T12:03:21;103591.91;;;11.85;67.46
32735;BME280;19112;51.076;3.706;2023-02-10T12:06:16;103583.31;;;11.76;67.75
32735;BME280;19112;51.076;3.706;2023-02-10T12:18:43;103612.13;;;11.98;68.09
32735;BME280;19112;51.076;3.706;2023-02-10T12:21:26;103613.69;;;12.07;67.64
32735;BME280;19112;51.076;3.706;2023-02-10T12:24:29;103624.53;;;12.24;67.53
32735;BME280;19112;51.076;3.706;2023-02-10T12:27:17;103552.28;;;11.95;66.96
32735;BME280;19112;51.076;3.706;2023-02-10T12:35:52;103527.97;;;12.24;65.76
32735;BME280;19112;51.076;3.706;2023-02-10T12:41:51;103617.44;;;12.48;65.47
32735;BME280;19112;51.076;3.706;2023-02-10T12:47:42;103625.72;;;12.41;65.39
32735;BME280;19112;51.076;3.706;2023-02-10T12:53:25;103527.72;;;11.83;65.11
32735;BME280;19112;51.076;3.706;2023-02-10T12:56:26;103585.00;;;12.24;65.44
32735;BME280;19112;51.076;3.706;2023-02-10T13:04:56;103571.13;;;12.51;65.02
32735;BME280;19112;51.076;3.706;2023-02-10T13:07:31;103383.13;;;11.61;64.62
32735;BME280;19112;51.076;3.706;2023-02-10T13:10:09;103597.78;;;12.94;63.83
32735;BME280;19112;51.076;3.706;2023-02-10T13:12:47;103561.28;;;12.87;63.09
32735;BME280;19112;51.076;3.706;2023-02-10T13:15:28;103592.41;;;12.93;63.61
32735;BME280;19112;51.076;3.706;2023-02-10T13:17:56;103444.50;;;11.98;63.79
32735;BME280;19112;51.076;3.706;2023-02-10T13:20:45;103588.63;;;12.76;63.95
32735;BME280;19112;51.076;3.706;2023-02-10T13:23:48;103372.03;;;11.40;64.22
32735;BME280;19112;51.076;3.706;2023-02-10T13:30:06;103570.16;;;12.63;64.11
32735;BME280;19112;51.076;3.706;2023-02-10T13:35:54;103302.94;;;10.81;64.65
32735;BME280;19112;51.076;3.706;2023-02-10T13:38:22;103521.34;;;12.04;64.47
32735;BME280;19112;51.076;3.706;2023-02-10T13:40:54;103556.34;;;12.03;64.83
32735;BME280;19112;51.076;3.706;2023-02-10T13:43:41;103330.91;;;10.81;64.69
32735;BME280;19112;51.076;3.706;2023-02-10T13:46:28;103330.91;;;10.81;65.05
32735;BME280;19112;51.076;3.706;2023-02-10T13:48:58;103504.34;;;11.76;65.21
32735;BME280;19112;51.076;3.706;2023-02-10T13:51:35;103560.03;;;12.05;65.16
32735;BME280;19112;51.076;3.706;2023-02-10T13:54:03;103400.44;;;11.21;65.27
32735;BME280;19112;51.076;3.706;2023-02-10T13:56:33;103561.84;;;12.06;65.41
32735;BME280;19112;51.076;3.706;2023-02-10T13:59:05;103569.97;;;12.10;65.23
32735;BME280;19112;51.076;3.706;2023-02-10T14:06:51;103408.94;;;11.42;65.23
32735;BME280;19112;51.076;3.706;2023-02-10T14:12:00;103514.00;;;12.25;63.64
32735;BME280;19112;51.076;3.706;2023-02-10T14:19:44;103555.69;;;12.69;63.41
32735;BME280;19112;51.076;3.706;2023-02-10T14:24:59;103541.41;;;12.79;63.03
32735;BME280;19112;51.076;3.706;2023-02-10T14:27:28;103472.88;;;12.41;63.21
32735;BME280;19112;51.076;3.706;2023-02-10T14:30:12;103434.53;;;12.19;63.08
32735;BME280;19112;51.076;3.706;2023-02-10T14:32:44;103508.41;;;12.72;62.70
32735;BME280;19112;51.076;3.706;2023-02-10T14:35:21;102837.19;;;8.92;62.67
32735;BME280;19112;51.076;3.706;2023-02-10T14:37:50;103536.50;;;12.72;62.87
32735;BME280;19112;51.076;3.706;2023-02-10T14:40:19;103210.75;;;11.03;62.63
32735;BME280;19112;51.076;3.706;2023-02-10T14:42:45;103431.22;;;12.22;62.79
32735;BME280;19112;51.076;3.706;2023-02-10T14:45:26;103504.56;;;12.54;62.74
32735;BME280;19112;51.076;3.706;2023-02-10T14:47:56;103525.72;;;12.55;62.24
32735;BME280;19112;51.076;3.706;2023-02-10T14:50:31;103481.47;;;12.25;62.03
32735;BME280;19112;51.076;3.706;2023-02-10T14:53:01;103518.91;;;12.46;62.02
32735;BME280;19112;51.076;3.706;2023-02-10T14:55:34;103517.16;;;12.33;61.89
32735;BME280;19112;51.076;3.706;2023-02-10T14:58:14;103489.44;;;12.13;61.98